sensor_id;sensor_type;location;lat;lon;timestamp;temperature;humidity
35363;DHT22;21463;47.480;8.214;2023-05-15T00:00:49;20.90;49.70
35363;DHT22;21463;47.480;8.214;2023-05-15T00:01:51;21.00;49.80
35363;DHT22;21463;47.480;8.214;2023-05-15T00:02:54;21.00;49.70
35363;DHT22;21463;47.480;8.214;2023-05-15T00:03:58;21.00;49.70
35363;DHT22;21463;47.480;8.214;2023-05-15T00:05:03;21.00;49.70
35363;DHT22;21463;47.480;8.214;2023-05-15T00:06:06;21.00;49.80
35363;DHT22;21463;47.480;8.214;2023-05-15T00:07:08;21.00;49.70
35363;DHT22;21463;47.480;8.214;2023-05-15T00:08:11;21.00;49.70
35363;DHT22;21463;47.480;8.214;2023-05-15T00:09:13;21.00;49.80
35363;DHT22;21463;47.480;8.214;2023-05-15T00:10:16;21.00;49.80
35363;DHT22;21463;47.480;8.214;2023-05-15T00:11:18;21.00;49.80
35363;DHT22;21463;47.480;8.214;2023-05-15T00:12:22;21.00;49.70
35363;DHT22;21463;47.480;8.214;2023-05-15T00:13:26;21.00;49.70
35363;DHT22;21463;47.480;8.214;2023-05-15T00:14:28;21.00;49.70
35363;DHT22;21463;47.480;8.214;2023-05-15T00:15:31;21.00;49.80
35363;DHT22;21463;47.480;8.214;2023-05-15T00:16:33;21.00;49.80
35363;DHT22;21463;47.480;8.214;2023-05-15T00:17:36;21.00;49.70
35363;DHT22;21463;47.480;8.214;2023-05-15T00:18:39;21.00;49.70
35363;DHT22;21463;47.480;8.214;2023-05-15T00:19:42;21.00;49.70
35363;DHT22;21463;47.480;8.214;2023-05-15T00:20:44;21.00;49.70
35363;DHT22;21463;47.480;8.214;2023-05-15T00:21:46;21.00;50.30
35363;DHT22;21463;47.480;8.214;2023-05-15T00:22:49;21.00;49.80
35363;DHT22;21463;47.480;8.214;2023-05-15T00:23:52;21.00;49.80
35363;DHT22;21463;47.480;8.214;2023-05-15T00:24:55;21.00;49.70
35363;DHT22;21463;47.480;8.214;2023-05-15T00:26:00;21.00;49.70
35363;DHT22;21463;47.480;8.214;2023-05-15T00:27:02;21.00;49.70
35363;DHT22;21463;47.480;8.214;2023-05-15T00:28:05;21.00;49.70
35363;DHT22;21463;47.480;8.214;2023-05-15T00:29:07;21.00;49.70
35363;DHT22;21463;47.480;8.214;2023-05-15T00:30:11;21.00;49.70
35363;DHT22;21463;47.480;8.214;2023-05-15T00:31:14;21.00;49.70
35363;DHT22;21463;47.480;8.214;2023-05-15T00:32:16;21.00;49.70
35363;DHT22;21463;47.480;8.214;2023-05-15T00:33:19;21.00;49.70
35363;DHT22;21463;47.480;8.214;2023-05-15T00:34:23;21.00;49.70
35363;DHT22;21463;47.480;8.214;2023-05-15T00:35:27;21.00;49.70
35363;DHT22;21463;47.480;8.214;2023-05-15T00:36:29;21.00;49.80
35363;DHT22;21463;47.480;8.214;2023-05-15T00:37:32;21.00;49.70
35363;DHT22;21463;47.480;8.214;2023-05-15T00:38:35;21.00;49.70
35363;DHT22;21463;47.480;8.214;2023-05-15T00:39:37;21.00;49.70
35363;DHT22;21463;47.480;8.214;2023-05-15T00:40:40;21.00;49.70
35363;DHT22;21463;47.480;8.214;2023-05-15T00:41:43;21.00;49.70
35363;DHT22;21463;47.480;8.214;2023-05-15T00:42:46;21.00;49.70
35363;DHT22;21463;47.480;8.214;2023-05-15T00:43:51;21.00;49.70
35363;DHT22;21463;47.480;8.214;2023-05-15T00:44:55;21.00;49.70
35363;DHT22;21463;47.480;8.214;2023-05-15T00:45:58;21.00;49.70
35363;DHT22;21463;47.480;8.214;2023-05-15T00:47:00;21.00;49.70
35363;DHT22;21463;47.480;8.214;2023-05-15T00:48:03;21.00;50.00
35363;DHT22;21463;47.480;8.214;2023-05-15T00:49:06;21.00;49.70
35363;DHT22;21463;47.480;8.214;2023-05-15T00:50:14;21.00;49.70
35363;DHT22;21463;47.480;8.214;2023-05-15T00:51:18;21.00;49.70
35363;DHT22;21463;47.480;8.214;2023-05-15T00:52:21;21.00;49.70
35363;DHT22;21463;47.480;8.214;2023-05-15T00:53:24;21.00;49.70
35363;DHT22;21463;47.480;8.214;2023-05-15T00:54:27;21.00;49.70
35363;DHT22;21463;47.480;8.214;2023-05-15T00:55:32;21.00;49.70
35363;DHT22;21463;47.480;8.214;2023-05-15T00:56:34;21.00;49.70
35363;DHT22;21463;47.480;8.214;2023-05-15T00:57:37;21.00;49.70
35363;DHT22;21463;47.480;8.214;2023-05-15T00:58:40;21.00;49.70
35363;DHT22;21463;47.480;8.214;2023-05-15T00:59:43;21.00;49.70
35363;DHT22;21463;47.480;8.214;2023-05-15T01:00:46;21.00;49.70
35363;DHT22;21463;47.480;8.214;2023-05-15T01:01:51;21.00;49.70
35363;DHT22;21463;47.480;8.214;2023-05-15T01:02:53;21.00;49.70
35363;DHT22;21463;47.480;8.214;2023-05-15T01:03:55;21.00;49.70
35363;DHT22;21463;47.480;8.214;2023-05-15T01:04:58;21.00;49.70
35363;DHT22;21463;47.480;8.214;2023-05-15T01:06:00;21.00;49.70
35363;DHT22;21463;47.480;8.214;2023-05-15T01:07:03;21.00;49.70
35363;DHT22;21463;47.480;8.214;2023-05-15T01:08:07;21.00;49.70
35363;DHT22;21463;47.480;8.214;2023-05-15T01:09:15;20.90;49.70
35363;DHT22;21463;47.480;8.214;2023-05-15T01:10:18;20.90;49.70
35363;DHT22;21463;47.480;8.214;2023-05-15T01:11:21;21.00;49.70
35363;DHT22;21463;47.480;8.214;2023-05-15T01:12:26;21.00;49.70
35363;DHT22;21463;47.480;8.214;2023-05-15T01:13:31;21.00;49.70
35363;DHT22;21463;47.480;8.214;2023-05-15T01:14:34;21.00;49.70
35363;DHT22;21463;47.480;8.214;2023-05-15T01:15:37;20.90;49.70
35363;DHT22;21463;47.480;8.214;2023-05-15T01:16:40;21.00;49.70
35363;DHT22;21463;47.480;8.214;2023-05-15T01:17:43;20.90;49.60
35363;DHT22;21463;47.480;8.214;2023-05-15T01:18:46;21.00;49.70
35363;DHT22;21463;47.480;8.214;2023-05-15T01:19:49;21.00;49.70
35363;DHT22;21463;47.480;8.214;2023-05-15T01:21:15;21.00;50.30
35363;DHT22;21463;47.480;8.214;2023-05-15T01:23:56;21.00;49.70
35363;DHT22;21463;47.480;8.214;2023-05-15T01:25:12;21.00;49.70
35363;DHT22;21463;47.480;8.214;2023-05-15T01:27:35;21.00;49.70
35363;DHT22;21463;47.480;8.214;2023-05-15T01:28:41;21.00;49.70
35363;DHT22;21463;47.480;8.214;2023-05-15T01:29:57;21.00;49.70
35363;DHT22;21463;47.480;8.214;2023-05-15T01:31:03;21.00;49.70
35363;DHT22;21463;47.480;8.214;2023-05-15T01:32:21;21.00;49.70
35363;DHT22;21463;47.480;8.214;2023-05-15T01:33:28;21.00;49.70
35363;DHT22;21463;47.480;8.214;2023-05-15T01:36:05;21.00;49.70
35363;DHT22;21463;47.480;8.214;2023-05-15T01:37:10;21.00;49.70
35363;DHT22;21463;47.480;8.214;2023-05-15T01:39:20;21.00;49.70
35363;DHT22;21463;47.480;8.214;2023-05-15T01:40:24;21.00;49.70
35363;DHT22;21463;47.480;8.214;2023-05-15T01:41:30;21.00;49.60
35363;DHT22;21463;47.480;8.214;2023-05-15T01:42:36;21.00;49.70
35363;DHT22;21463;47.480;8.214;2023-05-15T01:43:43;21.00;49.70
35363;DHT22;21463;47.480;8.214;2023-05-15T01:44:50;21.00;49.60
35363;DHT22;21463;47.480;8.214;2023-05-15T01:45:54;21.00;49.70
35363;DHT22;21463;47.480;8.214;2023-05-15T01:46:58;21.00;49.70
35363;DHT22;21463;47.480;8.214;2023-05-15T01:48:03;21.00;49.70
35363;DHT22;21463;47.480;8.214;2023-05-15T01:49:08;21.00;49.60
35363;DHT22;21463;47.480;8.214;2023-05-15T01:50:13;20.90;49.60
35363;DHT22;21463;47.480;8.214;2023-05-15T01:51:16;21.00;49.70
35363;DHT22;21463;47.480;8.214;2023-05-15T01:52:22;21.00;49.60
35363;DHT22;21463;47.480;8.214;2023-05-15T01:53:26;21.00;49.70
35363;DHT22;21463;47.480;8.214;2023-05-15T01:54:31;21.00;49.60
35363;DHT22;21463;47.480;8.214;2023-05-15T01:55:35;21.00;49.60
35363;DHT22;21463;47.480;8.214;2023-05-15T01:56:38;20.90;49.60
35363;DHT22;21463;47.480;8.214;2023-05-15T01:57:42;21.00;49.70
35363;DHT22;21463;47.480;8.214;2023-05-15T01:58:47;21.00;49.70
35363;DHT22;21463;47.480;8.214;2023-05-15T01:59:50;21.00;49.60
35363;DHT22;21463;47.480;8.214;2023-05-15T02:00:54;21.00;49.60
35363;DHT22;21463;47.480;8.214;2023-05-15T02:01:57;21.00;49.60
35363;DHT22;21463;47.480;8.214;2023-05-15T02:03:00;20.90;49.60
35363;DHT22;21463;47.480;8.214;2023-05-15T02:04:03;21.00;49.60
35363;DHT22;21463;47.480;8.214;2023-05-15T02:05:06;21.00;49.60
35363;DHT22;21463;47.480;8.214;2023-05-15T02:06:09;21.00;49.60
35363;DHT22;21463;47.480;8.214;2023-05-15T02:07:11;21.00;49.60
35363;DHT22;21463;47.480;8.214;2023-05-15T02:08:14;21.00;49.60
35363;DHT22;21463;47.480;8.214;2023-05-15T02:09:18;21.00;49.60
35363;DHT22;21463;47.480;8.214;2023-05-15T02:10:21;20.90;49.60
35363;DHT22;21463;47.480;8.214;2023-05-15T02:11:23;21.00;50.20
35363;DHT22;21463;47.480;8.214;2023-05-15T02:12:26;21.00;49.60
35363;DHT22;21463;47.480;8.214;2023-05-15T02:13:29;21.00;49.60
35363;DHT22;21463;47.480;8.214;2023-05-15T02:14:32;21.00;49.60
35363;DHT22;21463;47.480;8.214;2023-05-15T02:15:36;21.00;49.60
35363;DHT22;21463;47.480;8.214;2023-05-15T02:16:38;21.00;49.60
35363;DHT22;21463;47.480;8.214;2023-05-15T02:17:41;21.00;49.60
35363;DHT22;21463;47.480;8.214;2023-05-15T02:18:43;21.00;49.60
35363;DHT22;21463;47.480;8.214;2023-05-15T02:19:49;21.00;49.60
35363;DHT22;21463;47.480;8.214;2023-05-15T02:20:52;21.00;49.60
35363;DHT22;21463;47.480;8.214;2023-05-15T02:21:55;20.90;49.60
35363;DHT22;21463;47.480;8.214;2023-05-15T02:23:00;21.00;49.60
35363;DHT22;21463;47.480;8.214;2023-05-15T02:24:02;21.00;49.60
35363;DHT22;21463;47.480;8.214;2023-05-15T02:25:07;21.00;49.60
35363;DHT22;21463;47.480;8.214;2023-05-15T02:28:27;21.00;50.20
35363;DHT22;21463;47.480;8.214;2023-05-15T02:30:37;21.00;49.60
35363;DHT22;21463;47.480;8.214;2023-05-15T02:33:16;21.00;49.60
35363;DHT22;21463;47.480;8.214;2023-05-15T02:34:25;21.00;49.60
35363;DHT22;21463;47.480;8.214;2023-05-15T02:35:31;20.90;49.50
35363;DHT22;21463;47.480;8.214;2023-05-15T02:36:38;20.90;49.50
35363;DHT22;21463;47.480;8.214;2023-05-15T02:37:44;21.00;49.60
35363;DHT22;21463;47.480;8.214;2023-05-15T02:38:48;21.00;50.10
35363;DHT22;21463;47.480;8.214;2023-05-15T02:39:51;21.00;49.60
35363;DHT22;21463;47.480;8.214;2023-05-15T02:40:55;21.00;49.60
35363;DHT22;21463;47.480;8.214;2023-05-15T02:41:58;21.00;49.60
35363;DHT22;21463;47.480;8.214;2023-05-15T02:43:02;21.00;49.60
35363;DHT22;21463;47.480;8.214;2023-05-15T02:44:05;21.00;49.60
35363;DHT22;21463;47.480;8.214;2023-05-15T02:45:08;21.00;49.60
35363;DHT22;21463;47.480;8.214;2023-05-15T02:46:11;21.00;49.50
35363;DHT22;21463;47.480;8.214;2023-05-15T02:47:14;21.00;49.50
35363;DHT22;21463;47.480;8.214;2023-05-15T02:48:17;21.00;49.60
35363;DHT22;21463;47.480;8.214;2023-05-15T02:49:21;21.00;49.50
35363;DHT22;21463;47.480;8.214;2023-05-15T02:50:23;21.00;49.60
35363;DHT22;21463;47.480;8.214;2023-05-15T02:51:25;21.00;49.50
35363;DHT22;21463;47.480;8.214;2023-05-15T02:52:28;21.00;49.60
35363;DHT22;21463;47.480;8.214;2023-05-15T02:53:31;21.00;49.60
35363;DHT22;21463;47.480;8.214;2023-05-15T02:54:33;21.00;49.50
35363;DHT22;21463;47.480;8.214;2023-05-15T02:55:36;21.00;49.60
35363;DHT22;21463;47.480;8.214;2023-05-15T02:56:39;21.00;49.60
35363;DHT22;21463;47.480;8.214;2023-05-15T02:57:41;21.00;49.60
35363;DHT22;21463;47.480;8.214;2023-05-15T02:58:44;21.00;49.50
35363;DHT22;21463;47.480;8.214;2023-05-15T02:59:46;21.00;49.50
35363;DHT22;21463;47.480;8.214;2023-05-15T03:00:49;21.00;49.60
35363;DHT22;21463;47.480;8.214;2023-05-15T03:01:51;21.00;49.50
35363;DHT22;21463;47.480;8.214;2023-05-15T03:02:53;21.00;49.50
35363;DHT22;21463;47.480;8.214;2023-05-15T03:03:57;21.00;49.60
35363;DHT22;21463;47.480;8.214;2023-05-15T03:05:00;21.00;49.50
35363;DHT22;21463;47.480;8.214;2023-05-15T03:06:02;20.90;49.50
35363;DHT22;21463;47.480;8.214;2023-05-15T03:07:04;21.00;49.50
35363;DHT22;21463;47.480;8.214;2023-05-15T03:08:07;21.00;49.50
35363;DHT22;21463;47.480;8.214;2023-05-15T03:09:09;20.90;49.50
35363;DHT22;21463;47.480;8.214;2023-05-15T03:10:11;20.90;49.50
35363;DHT22;21463;47.480;8.214;2023-05-15T03:11:14;21.00;49.50
35363;DHT22;21463;47.480;8.214;2023-05-15T03:12:18;21.00;49.50
35363;DHT22;21463;47.480;8.214;2023-05-15T03:13:20;21.00;49.50
35363;DHT22;21463;47.480;8.214;2023-05-15T03:14:23;21.00;49.50
35363;DHT22;21463;47.480;8.214;2023-05-15T03:15:26;21.00;49.50
35363;DHT22;21463;47.480;8.214;2023-05-15T03:16:29;21.00;49.50
35363;DHT22;21463;47.480;8.214;2023-05-15T03:17:31;21.00;49.50
35363;DHT22;21463;47.480;8.214;2023-05-15T03:18:34;20.90;49.40
35363;DHT22;21463;47.480;8.214;2023-05-15T03:19:37;20.90;49.50
35363;DHT22;21463;47.480;8.214;2023-05-15T03:20:39;21.00;49.50
35363;DHT22;21463;47.480;8.214;2023-05-15T03:21:42;21.00;49.50
35363;DHT22;21463;47.480;8.214;2023-05-15T03:22:45;21.00;49.50
35363;DHT22;21463;47.480;8.214;2023-05-15T03:23:47;20.90;49.40
35363;DHT22;21463;47.480;8.214;2023-05-15T03:24:51;21.00;49.50
35363;DHT22;21463;47.480;8.214;2023-05-15T03:25:54;21.00;49.50
35363;DHT22;21463;47.480;8.214;2023-05-15T03:26:59;20.90;49.40
35363;DHT22;21463;47.480;8.214;2023-05-15T03:28:03;21.00;49.50
35363;DHT22;21463;47.480;8.214;2023-05-15T03:29:05;21.00;49.40
35363;DHT22;21463;47.480;8.214;2023-05-15T03:30:08;21.00;49.50
35363;DHT22;21463;47.480;8.214;2023-05-15T03:31:10;21.00;49.40
35363;DHT22;21463;47.480;8.214;2023-05-15T03:32:14;21.00;49.40
35363;DHT22;21463;47.480;8.214;2023-05-15T03:33:17;21.00;49.40
35363;DHT22;21463;47.480;8.214;2023-05-15T03:34:19;21.00;49.40
35363;DHT22;21463;47.480;8.214;2023-05-15T03:35:21;21.00;49.50
35363;DHT22;21463;47.480;8.214;2023-05-15T03:36:24;21.00;49.40
35363;DHT22;21463;47.480;8.214;2023-05-15T03:37:27;21.00;49.40
35363;DHT22;21463;47.480;8.214;2023-05-15T03:38:29;21.00;49.40
35363;DHT22;21463;47.480;8.214;2023-05-15T03:39:31;21.00;49.40
35363;DHT22;21463;47.480;8.214;2023-05-15T03:40:34;21.00;49.40
35363;DHT22;21463;47.480;8.214;2023-05-15T03:41:38;21.00;49.40
35363;DHT22;21463;47.480;8.214;2023-05-15T03:42:40;21.00;49.40
35363;DHT22;21463;47.480;8.214;2023-05-15T03:43:44;21.00;49.40
35363;DHT22;21463;47.480;8.214;2023-05-15T03:44:47;21.00;49.40
35363;DHT22;21463;47.480;8.214;2023-05-15T03:45:50;21.00;49.40
35363;DHT22;21463;47.480;8.214;2023-05-15T03:46:52;21.00;49.40
35363;DHT22;21463;47.480;8.214;2023-05-15T03:47:55;21.00;49.40
35363;DHT22;21463;47.480;8.214;2023-05-15T03:48:58;20.90;49.30
35363;DHT22;21463;47.480;8.214;2023-05-15T03:50:00;21.00;49.40
35363;DHT22;21463;47.480;8.214;2023-05-15T03:51:07;21.00;49.40
35363;DHT22;21463;47.480;8.214;2023-05-15T03:52:09;21.00;49.40
35363;DHT22;21463;47.480;8.214;2023-05-15T03:53:12;20.90;49.40
35363;DHT22;21463;47.480;8.214;2023-05-15T03:54:15;21.00;49.40
35363;DHT22;21463;47.480;8.214;2023-05-15T03:55:17;21.00;49.30
35363;DHT22;21463;47.480;8.214;2023-05-15T03:56:20;21.00;49.30
35363;DHT22;21463;47.480;8.214;2023-05-15T03:57:22;21.00;49.40
35363;DHT22;21463;47.480;8.214;2023-05-15T03:58:25;21.00;49.40
35363;DHT22;21463;47.480;8.214;2023-05-15T03:59:27;20.90;49.30
35363;DHT22;21463;47.480;8.214;2023-05-15T04:00:32;20.90;49.30
35363;DHT22;21463;47.480;8.214;2023-05-15T04:01:34;21.00;49.40
35363;DHT22;21463;47.480;8.214;2023-05-15T04:02:53;20.90;49.30
35363;DHT22;21463;47.480;8.214;2023-05-15T04:03:56;20.90;49.30
35363;DHT22;21463;47.480;8.214;2023-05-15T04:04:58;21.00;49.30
35363;DHT22;21463;47.480;8.214;2023-05-15T04:06:00;21.00;49.30
35363;DHT22;21463;47.480;8.214;2023-05-15T04:07:03;20.90;49.30
35363;DHT22;21463;47.480;8.214;2023-05-15T04:08:05;21.00;49.30
35363;DHT22;21463;47.480;8.214;2023-05-15T04:09:08;21.00;49.30
35363;DHT22;21463;47.480;8.214;2023-05-15T04:10:12;21.00;49.30
35363;DHT22;21463;47.480;8.214;2023-05-15T04:11:14;21.00;49.30
35363;DHT22;21463;47.480;8.214;2023-05-15T04:12:17;21.00;49.30
35363;DHT22;21463;47.480;8.214;2023-05-15T04:13:19;21.00;49.30
35363;DHT22;21463;47.480;8.214;2023-05-15T04:14:23;20.90;49.20
35363;DHT22;21463;47.480;8.214;2023-05-15T04:15:26;21.00;49.30
35363;DHT22;21463;47.480;8.214;2023-05-15T04:16:31;21.00;49.30
35363;DHT22;21463;47.480;8.214;2023-05-15T04:17:34;21.00;49.30
35363;DHT22;21463;47.480;8.214;2023-05-15T04:18:36;21.00;49.30
35363;DHT22;21463;47.480;8.214;2023-05-15T04:19:39;21.00;49.30
35363;DHT22;21463;47.480;8.214;2023-05-15T04:20:44;21.00;49.30
35363;DHT22;21463;47.480;8.214;2023-05-15T04:21:46;21.00;49.30
35363;DHT22;21463;47.480;8.214;2023-05-15T04:22:51;20.90;49.20
35363;DHT22;21463;47.480;8.214;2023-05-15T04:23:53;21.00;49.20
35363;DHT22;21463;47.480;8.214;2023-05-15T04:24:56;21.00;49.20
35363;DHT22;21463;47.480;8.214;2023-05-15T04:25:58;20.90;49.20
35363;DHT22;21463;47.480;8.214;2023-05-15T04:27:00;20.90;49.20
35363;DHT22;21463;47.480;8.214;2023-05-15T04:28:03;20.90;49.20
35363;DHT22;21463;47.480;8.214;2023-05-15T04:29:05;21.00;49.20
35363;DHT22;21463;47.480;8.214;2023-05-15T04:30:08;21.00;49.20
35363;DHT22;21463;47.480;8.214;2023-05-15T04:31:11;20.90;49.10
35363;DHT22;21463;47.480;8.214;2023-05-15T04:32:14;21.00;49.20
35363;DHT22;21463;47.480;8.214;2023-05-15T04:33:16;21.00;49.20
35363;DHT22;21463;47.480;8.214;2023-05-15T04:34:22;21.00;49.20
35363;DHT22;21463;47.480;8.214;2023-05-15T04:35:25;21.00;49.20
35363;DHT22;21463;47.480;8.214;2023-05-15T04:36:28;20.90;49.20
35363;DHT22;21463;47.480;8.214;2023-05-15T04:37:31;21.00;49.20
35363;DHT22;21463;47.480;8.214;2023-05-15T04:38:34;21.00;49.20
35363;DHT22;21463;47.480;8.214;2023-05-15T04:39:38;20.90;49.20
35363;DHT22;21463;47.480;8.214;2023-05-15T04:40:40;21.00;49.20
35363;DHT22;21463;47.480;8.214;2023-05-15T04:41:43;21.00;49.20
35363;DHT22;21463;47.480;8.214;2023-05-15T04:42:45;21.00;49.20
35363;DHT22;21463;47.480;8.214;2023-05-15T04:43:47;20.90;49.10
35363;DHT22;21463;47.480;8.214;2023-05-15T04:44:50;21.00;49.10
35363;DHT22;21463;47.480;8.214;2023-05-15T04:45:52;21.00;49.10
35363;DHT22;21463;47.480;8.214;2023-05-15T04:46:54;21.00;49.10
35363;DHT22;21463;47.480;8.214;2023-05-15T04:47:56;21.00;49.10
35363;DHT22;21463;47.480;8.214;2023-05-15T04:49:01;21.00;49.10
35363;DHT22;21463;47.480;8.214;2023-05-15T04:50:04;21.00;49.10
35363;DHT22;21463;47.480;8.214;2023-05-15T04:51:09;21.00;49.10
35363;DHT22;21463;47.480;8.214;2023-05-15T04:52:13;21.00;49.10
35363;DHT22;21463;47.480;8.214;2023-05-15T04:53:15;21.00;49.10
35363;DHT22;21463;47.480;8.214;2023-05-15T04:54:18;21.00;49.10
35363;DHT22;21463;47.480;8.214;2023-05-15T04:55:20;21.00;49.10
35363;DHT22;21463;47.480;8.214;2023-05-15T04:56:24;21.00;49.10
35363;DHT22;21463;47.480;8.214;2023-05-15T04:57:28;20.90;49.00
35363;DHT22;21463;47.480;8.214;2023-05-15T04:58:31;21.00;49.10
35363;DHT22;21463;47.480;8.214;2023-05-15T04:59:34;20.90;49.00
35363;DHT22;21463;47.480;8.214;2023-05-15T05:00:37;21.00;49.10
35363;DHT22;21463;47.480;8.214;2023-05-15T05:01:40;21.00;49.10
35363;DHT22;21463;47.480;8.214;2023-05-15T05:02:42;21.00;49.00
35363;DHT22;21463;47.480;8.214;2023-05-15T05:03:45;20.90;49.00
35363;DHT22;21463;47.480;8.214;2023-05-15T05:04:47;21.00;49.10
35363;DHT22;21463;47.480;8.214;2023-05-15T05:05:51;20.90;48.90
35363;DHT22;21463;47.480;8.214;2023-05-15T05:06:53;21.00;49.00
35363;DHT22;21463;47.480;8.214;2023-05-15T05:07:59;21.00;49.00
35363;DHT22;21463;47.480;8.214;2023-05-15T05:09:02;20.90;48.90
35363;DHT22;21463;47.480;8.214;2023-05-15T05:10:05;21.00;49.00
35363;DHT22;21463;47.480;8.214;2023-05-15T05:11:07;21.00;49.00
35363;DHT22;21463;47.480;8.214;2023-05-15T05:12:11;21.00;49.00
35363;DHT22;21463;47.480;8.214;2023-05-15T05:13:13;20.90;48.90
35363;DHT22;21463;47.480;8.214;2023-05-15T05:14:16;21.00;49.00
35363;DHT22;21463;47.480;8.214;2023-05-15T05:15:19;21.00;49.00
35363;DHT22;21463;47.480;8.214;2023-05-15T05:16:21;21.00;49.00
35363;DHT22;21463;47.480;8.214;2023-05-15T05:17:23;21.00;48.90
35363;DHT22;21463;47.480;8.214;2023-05-15T05:18:29;20.90;48.90
35363;DHT22;21463;47.480;8.214;2023-05-15T05:19:31;21.00;48.90
35363;DHT22;21463;47.480;8.214;2023-05-15T05:20:33;20.90;48.90
35363;DHT22;21463;47.480;8.214;2023-05-15T05:21:37;20.90;48.90
35363;DHT22;21463;47.480;8.214;2023-05-15T05:22:39;21.00;48.90
35363;DHT22;21463;47.480;8.214;2023-05-15T05:23:44;20.90;48.90
35363;DHT22;21463;47.480;8.214;2023-05-15T05:24:47;21.00;48.90
35363;DHT22;21463;47.480;8.214;2023-05-15T05:25:51;20.90;48.90
35363;DHT22;21463;47.480;8.214;2023-05-15T05:26:55;21.00;48.90
35363;DHT22;21463;47.480;8.214;2023-05-15T05:27:59;20.90;48.80
35363;DHT22;21463;47.480;8.214;2023-05-15T05:29:03;20.90;48.90
35363;DHT22;21463;47.480;8.214;2023-05-15T05:30:06;20.90;48.80
35363;DHT22;21463;47.480;8.214;2023-05-15T05:31:09;21.00;48.90
35363;DHT22;21463;47.480;8.214;2023-05-15T05:32:12;21.00;48.90
35363;DHT22;21463;47.480;8.214;2023-05-15T05:33:15;21.00;48.90
35363;DHT22;21463;47.480;8.214;2023-05-15T05:34:18;20.90;48.80
35363;DHT22;21463;47.480;8.214;2023-05-15T05:35:20;21.00;48.90
35363;DHT22;21463;47.480;8.214;2023-05-15T05:36:22;20.90;48.80
35363;DHT22;21463;47.480;8.214;2023-05-15T05:37:25;21.00;48.80
35363;DHT22;21463;47.480;8.214;2023-05-15T05:38:27;21.00;48.80
35363;DHT22;21463;47.480;8.214;2023-05-15T05:39:30;21.00;48.80
35363;DHT22;21463;47.480;8.214;2023-05-15T05:40:32;21.00;48.80
35363;DHT22;21463;47.480;8.214;2023-05-15T05:41:35;21.00;48.80
35363;DHT22;21463;47.480;8.214;2023-05-15T05:42:37;20.90;48.80
35363;DHT22;21463;47.480;8.214;2023-05-15T05:43:39;20.90;48.70
35363;DHT22;21463;47.480;8.214;2023-05-15T05:44:42;21.00;48.80
35363;DHT22;21463;47.480;8.214;2023-05-15T05:45:44;20.90;48.70
35363;DHT22;21463;47.480;8.214;2023-05-15T05:46:47;20.90;48.80
35363;DHT22;21463;47.480;8.214;2023-05-15T05:47:50;20.90;48.70
35363;DHT22;21463;47.480;8.214;2023-05-15T05:48:52;21.00;48.80
35363;DHT22;21463;47.480;8.214;2023-05-15T05:49:56;21.00;48.80
35363;DHT22;21463;47.480;8.214;2023-05-15T05:50:59;21.00;48.80
35363;DHT22;21463;47.480;8.214;2023-05-15T05:52:08;21.00;48.80
35363;DHT22;21463;47.480;8.214;2023-05-15T05:53:11;20.90;48.70
35363;DHT22;21463;47.480;8.214;2023-05-15T05:54:13;20.90;48.70
35363;DHT22;21463;47.480;8.214;2023-05-15T05:55:16;21.00;48.80
35363;DHT22;21463;47.480;8.214;2023-05-15T05:56:20;21.00;48.70
35363;DHT22;21463;47.480;8.214;2023-05-15T05:57:23;21.00;48.80
35363;DHT22;21463;47.480;8.214;2023-05-15T05:58:25;21.00;48.70
35363;DHT22;21463;47.480;8.214;2023-05-15T05:59:27;20.90;48.70
35363;DHT22;21463;47.480;8.214;2023-05-15T06:00:30;21.00;48.70
35363;DHT22;21463;47.480;8.214;2023-05-15T06:01:33;21.00;48.70
35363;DHT22;21463;47.480;8.214;2023-05-15T06:02:38;20.90;48.60
35363;DHT22;21463;47.480;8.214;2023-05-15T06:03:41;21.00;48.70
35363;DHT22;21463;47.480;8.214;2023-05-15T06:04:44;21.00;48.70
35363;DHT22;21463;47.480;8.214;2023-05-15T06:05:47;20.90;48.60
35363;DHT22;21463;47.480;8.214;2023-05-15T06:06:49;21.00;48.70
35363;DHT22;21463;47.480;8.214;2023-05-15T06:07:52;20.90;48.60
35363;DHT22;21463;47.480;8.214;2023-05-15T06:08:55;20.90;48.60
35363;DHT22;21463;47.480;8.214;2023-05-15T06:09:58;21.00;48.70
35363;DHT22;21463;47.480;8.214;2023-05-15T06:11:01;21.00;48.70
35363;DHT22;21463;47.480;8.214;2023-05-15T06:12:04;21.00;48.70
35363;DHT22;21463;47.480;8.214;2023-05-15T06:13:07;20.90;48.60
35363;DHT22;21463;47.480;8.214;2023-05-15T06:14:11;20.90;48.60
35363;DHT22;21463;47.480;8.214;2023-05-15T06:15:14;20.90;48.60
35363;DHT22;21463;47.480;8.214;2023-05-15T06:16:19;20.90;48.60
35363;DHT22;21463;47.480;8.214;2023-05-15T06:17:21;20.90;48.60
35363;DHT22;21463;47.480;8.214;2023-05-15T06:18:23;20.90;48.60
35363;DHT22;21463;47.480;8.214;2023-05-15T06:19:26;21.00;48.70
35363;DHT22;21463;47.480;8.214;2023-05-15T06:20:28;20.90;48.60
35363;DHT22;21463;47.480;8.214;2023-05-15T06:21:30;21.00;48.60
35363;DHT22;21463;47.480;8.214;2023-05-15T06:22:33;21.00;48.60
35363;DHT22;21463;47.480;8.214;2023-05-15T06:23:36;21.00;48.60
35363;DHT22;21463;47.480;8.214;2023-05-15T06:24:38;21.00;48.60
35363;DHT22;21463;47.480;8.214;2023-05-15T06:25:41;20.90;48.50
35363;DHT22;21463;47.480;8.214;2023-05-15T06:26:43;21.00;48.60
35363;DHT22;21463;47.480;8.214;2023-05-15T06:27:45;21.00;48.60
35363;DHT22;21463;47.480;8.214;2023-05-15T06:28:48;21.00;48.60
35363;DHT22;21463;47.480;8.214;2023-05-15T06:29:50;20.90;48.50
35363;DHT22;21463;47.480;8.214;2023-05-15T06:30:53;21.00;48.60
35363;DHT22;21463;47.480;8.214;2023-05-15T06:31:55;20.90;48.50
35363;DHT22;21463;47.480;8.214;2023-05-15T06:32:57;20.90;48.50
35363;DHT22;21463;47.480;8.214;2023-05-15T06:34:00;21.00;48.50
35363;DHT22;21463;47.480;8.214;2023-05-15T06:35:02;21.00;48.50
35363;DHT22;21463;47.480;8.214;2023-05-15T06:36:07;21.00;48.50
35363;DHT22;21463;47.480;8.214;2023-05-15T06:37:10;20.90;48.50
35363;DHT22;21463;47.480;8.214;2023-05-15T06:38:12;21.00;48.60
35363;DHT22;21463;47.480;8.214;2023-05-15T06:39:14;20.90;48.50
35363;DHT22;21463;47.480;8.214;2023-05-15T06:40:17;21.00;48.60
35363;DHT22;21463;47.480;8.214;2023-05-15T06:41:19;21.00;48.50
35363;DHT22;21463;47.480;8.214;2023-05-15T06:42:22;21.00;48.50
35363;DHT22;21463;47.480;8.214;2023-05-15T06:43:24;21.00;48.50
35363;DHT22;21463;47.480;8.214;2023-05-15T06:44:27;21.00;48.50
35363;DHT22;21463;47.480;8.214;2023-05-15T06:45:29;21.00;48.50
35363;DHT22;21463;47.480;8.214;2023-05-15T06:46:32;21.00;48.50
35363;DHT22;21463;47.480;8.214;2023-05-15T06:47:34;20.90;48.50
35363;DHT22;21463;47.480;8.214;2023-05-15T06:48:37;20.90;48.50
35363;DHT22;21463;47.480;8.214;2023-05-15T06:49:39;21.00;48.50
35363;DHT22;21463;47.480;8.214;2023-05-15T06:50:41;21.00;48.50